St Just, Puerto Rico
Current Conditions -  °F | °C
As of 11:56 AM on Saturday 20 Dec 2014 (Local Time) from TJSJ Reporting Station
Scattered Clouds Scattered Clouds  
Wind Chill: 84°   Ceiling: Unl
Heat Index: 89°   Visibility: 10mi
Dew Point: 71°   Wind: 14mph
Humidity: 65%   Direction: 70°ENE
Pressure: 30.04"   Gusts: NA
Location:  18.337°N, 65.9901°W
Report Text: TJSJ 201556Z 07012KT 10SM SCT035 29/22 A3004 RMK AO2 SLP172 T02890217
Loading
Personal Weather Stations






























Interactive Weather Map New forecast layout! Learn more

10-Day Weather Forecast

Advertisements
Track Severe Weather on mobile